57CO weather

The Children's Hospital Heliport
Denver, Colorado, United States

Public forecast

Using degrees Fahrenheit for public forecast. Weather courtesy of forecast.io.

METAR (pilot weather report)

Closest report is Buckley Air Force Base, 10.1 nm (18.7 km) E. Retrieved 2019/04/18 23:58 UTC (45 minutes ago):

KBKF 182358Z 03019KT 10SM BKN080 15/M04 A3016 RMK AO2A SLP190 T01451043 10158 20088 55003

TAF (pilot weather forecast)

Forecast is more than 6 hours old.

Closest forecast is Buckley Air Force Base, 10.1 nm (18.7 km) E. Retrieved 2019/04/18 17:06 UTC (8 hours ago):

TAF TAF KBKF 181704Z 1817/1923 02012KT 9999 SCT030 BKN060 QNH3018INS BECMG 1818/1819 01012G18KT 9999 BKN100 QNH3017INS TEMPO 1819/1901 01015G25KT 520009 BECMG 1903/1904 VRB06KT 9999 SCT060 QNH3021INS BECMG 1911/1912 33009KT 9999 FEW180 QNH3010INS TX13/1821Z TN03/1912Z